»·PEaware :: N734DT KEMT-KSBA

N734DT :: KEMT-KSBA

FLIGHT INFORMATION

Flight Status: Arrived
Operator: Privately registered:
United States
More flights under this callsign
Pilot: Anonymous 27952 (27952)
Aircraft: CESSNA 172 SKYHAWK
(C172)
More flights by this aircraft type
Origin: KEMT El Monte
United States
Destination: KSBA Santa Barbara Mun
United States
More flights between these airports :: More routes between these airports
Route: PDZ V186 DEANO V27 KWANG
File this flight plan on PilotEdge
Remarks:
Altitude:
(Current/Filed)
6,000ft
Speed:
(Current/Filed)
90kts
Departed: 13-Jan-21 08:29 PM
Arrived: 13-Jan-21 09:00 PM
Distance/Time
Traveled:
92nm/0:31
Distance/Time
To Go:
Arrived

Flight Plot

Page will automatically refresh every two minutes.


Map Options




Map Legend


Flown Route
Filed Route
Departure Airport
Arrival Airport
Navaid (VOR, NDB)
Fix

Horizontal Profiles

Position Reports

Time Latitude Longitude Heading Altitude Ground
Speed
13-Jan-21 19:41 34.091348 -118.030615 296 295ft 0kts
13-Jan-21 19:41 34.091348 -118.030615 296 295ft 0kts
13-Jan-21 19:42 34.091348 -118.030615 296 295ft 0kts
13-Jan-21 19:49 34.091348 -118.030615 296 295ft 0kts
13-Jan-21 19:50 34.091348 -118.030615 296 295ft 0kts
13-Jan-21 19:51 34.091348 -118.030615 296 295ft 0kts
13-Jan-21 19:52 34.091348 -118.030615 296 295ft 0kts
13-Jan-21 19:53 34.091348 -118.030615 296 295ft 0kts
13-Jan-21 19:54 34.091348 -118.030615 296 295ft 0kts
13-Jan-21 19:55 34.091348 -118.030615 296 295ft 0kts
13-Jan-21 19:56 34.091348 -118.030615 296 295ft 0kts
13-Jan-21 19:57 34.091348 -118.030615 296 295ft 0kts
13-Jan-21 19:58 34.091348 -118.030615 296 295ft 0kts
13-Jan-21 19:59 34.091348 -118.030615 296 295ft 0kts
13-Jan-21 20:00 34.091348 -118.030615 296 295ft 0kts
13-Jan-21 20:01 34.091348 -118.030615 296 295ft 0kts
13-Jan-21 20:02 34.091348 -118.030615 296 295ft 0kts
13-Jan-21 20:03 34.091348 -118.030615 296 295ft 0kts
13-Jan-21 20:04 34.091348 -118.030615 296 295ft 0kts
13-Jan-21 20:05 34.091348 -118.030615 296 295ft 0kts
13-Jan-21 20:06 34.091348 -118.030615 296 295ft 0kts
13-Jan-21 20:07 34.091348 -118.030615 296 295ft 0kts
13-Jan-21 20:08 34.091348 -118.030615 296 295ft 0kts
13-Jan-21 20:09 34.091441 -118.030950 255 296ft 9kts
13-Jan-21 20:10 34.090753 -118.031564 247 295ft 0kts
13-Jan-21 20:11 34.091348 -118.030615 295 295ft 0kts
13-Jan-21 20:12 34.091348 -118.030615 295 295ft 0kts
13-Jan-21 20:13 34.091348 -118.030615 295 295ft 0kts
13-Jan-21 20:14 34.090789 -118.031496 251 295ft 0kts
13-Jan-21 20:15 34.090789 -118.031496 251 295ft 0kts
13-Jan-21 20:16 34.090789 -118.031496 251 295ft 0kts
13-Jan-21 20:17 34.090789 -118.031496 251 295ft 0kts
13-Jan-21 20:18 34.090789 -118.031496 251 295ft 0kts
13-Jan-21 20:19 34.090789 -118.031496 251 295ft 0kts
13-Jan-21 20:20 34.090789 -118.031496 251 295ft 0kts
13-Jan-21 20:21 34.090789 -118.031496 251 295ft 0kts
13-Jan-21 20:22 34.090789 -118.031496 251 295ft 0kts
13-Jan-21 20:23 34.090789 -118.031496 251 295ft 0kts
13-Jan-21 20:24 34.090789 -118.031496 251 295ft 0kts
13-Jan-21 20:25 34.090789 -118.031496 251 295ft 0kts
13-Jan-21 20:26 34.090789 -118.031496 251 295ft 0kts
13-Jan-21 20:27 34.090612 -118.032209 206 295ft 0kts
13-Jan-21 20:28 34.060262 -118.053085 214 1437ft 76kts
13-Jan-21 20:29 34.020056 -118.043856 96 2799ft 99kts
13-Jan-21 20:30 34.034432 -117.980783 54 4355ft 95kts
13-Jan-21 20:31 34.071129 -117.982621 308 5784ft 85kts
13-Jan-21 20:32 34.099628 -118.028432 299 6521ft 85kts
13-Jan-21 20:33 34.111893 -118.088183 287 6089ft 100kts
13-Jan-21 20:34 34.127511 -118.148541 285 6556ft 89kts
13-Jan-21 20:35 34.147247 -118.205690 287 5960ft 86kts
13-Jan-21 20:36 34.165894 -118.265253 288 6132ft 102kts
13-Jan-21 20:37 34.184317 -118.333764 293 6104ft 106kts
13-Jan-21 20:38 34.204854 -118.402382 293 6121ft 108kts
13-Jan-21 20:39 34.226562 -118.472090 295 6070ft 112kts
13-Jan-21 20:40 34.246257 -118.545452 293 5994ft 115kts
13-Jan-21 20:41 34.268095 -118.618996 294 6080ft 115kts
13-Jan-21 20:42 34.290750 -118.690191 298 6164ft 116kts
13-Jan-21 20:43 34.318128 -118.763111 286 6135ft 116kts
13-Jan-21 20:44 34.345053 -118.835499 290 5939ft 124kts
13-Jan-21 20:45 34.346442 -118.916962 263 5931ft 127kts
13-Jan-21 20:46 34.314683 -118.990612 239 6040ft 127kts
13-Jan-21 20:47 34.271455 -119.059434 244 5908ft 127kts
13-Jan-21 20:48 34.228148 -119.125931 236 5978ft 129kts
13-Jan-21 20:49 34.235764 -119.203222 296 6062ft 124kts
13-Jan-21 20:50 34.253505 -119.286023 286 5190ft 137kts
13-Jan-21 20:51 34.280687 -119.362348 316 4090ft 109kts
13-Jan-21 20:52 34.301818 -119.439902 291 4277ft 108kts
13-Jan-21 20:53 34.319900 -119.515670 289 4089ft 129kts
13-Jan-21 20:54 34.350437 -119.596812 304 3462ft 124kts
13-Jan-21 20:55 34.393748 -119.657265 321 2919ft 111kts
13-Jan-21 20:56 34.417735 -119.716141 290 3008ft 104kts
13-Jan-21 20:57 34.428582 -119.780187 273 2276ft 61kts
13-Jan-21 20:58 34.428028 -119.823605 263 635ft 66kts
13-Jan-21 20:59 34.424116 -119.849086 189 13ft 0kts

Navigation Log

Ident Type
Flight plan parsing failed, navigation log unavailable